sensor_id;sensor_type;location;lat;lon;timestamp;pressure;altitude;pressure_sealevel;temperature;humidity
49341;BME280;35209;51.050;13.678;2023-07-20T00:02:27;99520.34;;;16.96;100.00
49341;BME280;35209;51.050;13.678;2023-07-20T00:07:29;99522.94;;;16.83;100.00
49341;BME280;35209;51.050;13.678;2023-07-20T00:12:31;99526.69;;;16.93;100.00
49341;BME280;35209;51.050;13.678;2023-07-20T00:17:33;99508.41;;;16.88;100.00
49341;BME280;35209;51.050;13.678;2023-07-20T00:22:34;99503.75;;;16.92;100.00
49341;BME280;35209;51.050;13.678;2023-07-20T00:27:36;99509.72;;;16.96;100.00
49341;BME280;35209;51.050;13.678;2023-07-20T00:32:38;99525.28;;;17.14;100.00
49341;BME280;35209;51.050;13.678;2023-07-20T00:37:40;99524.38;;;17.01;100.00
49341;BME280;35209;51.050;13.678;2023-07-20T00:42:41;99519.69;;;16.92;100.00
49341;BME280;35209;51.050;13.678;2023-07-20T00:47:43;99518.19;;;16.88;100.00
49341;BME280;35209;51.050;13.678;2023-07-20T00:52:45;99517.88;;;16.93;100.00
49341;BME280;35209;51.050;13.678;2023-07-20T00:57:47;99516.16;;;16.64;100.00
49341;BME280;35209;51.050;13.678;2023-07-20T01:02:49;99524.19;;;16.77;100.00
49341;BME280;35209;51.050;13.678;2023-07-20T01:08:11;99517.41;;;16.86;100.00
49341;BME280;35209;51.050;13.678;2023-07-20T01:13:18;99520.72;;;16.89;100.00
49341;BME280;35209;51.050;13.678;2023-07-20T01:18:20;99527.72;;;16.63;100.00
49341;BME280;35209;51.050;13.678;2023-07-20T01:34:08;99531.28;;;16.77;100.00
49341;BME280;35209;51.050;13.678;2023-07-20T01:39:14;99527.44;;;16.54;100.00
49341;BME280;35209;51.050;13.678;2023-07-20T01:44:16;99536.44;;;16.65;100.00
49341;BME280;35209;51.050;13.678;2023-07-20T01:49:18;99533.38;;;16.72;100.00
49341;BME280;35209;51.050;13.678;2023-07-20T01:54:19;99536.72;;;16.61;100.00
49341;BME280;35209;51.050;13.678;2023-07-20T01:59:22;99538.44;;;16.62;100.00
49341;BME280;35209;51.050;13.678;2023-07-20T02:04:25;99529.38;;;16.37;100.00
49341;BME280;35209;51.050;13.678;2023-07-20T02:09:26;99521.41;;;16.52;100.00
49341;BME280;35209;51.050;13.678;2023-07-20T02:14:28;99531.44;;;16.47;100.00
49341;BME280;35209;51.050;13.678;2023-07-20T02:19:30;99528.09;;;16.30;100.00
49341;BME280;35209;51.050;13.678;2023-07-20T02:24:33;99523.22;;;16.37;100.00
49341;BME280;35209;51.050;13.678;2023-07-20T02:29:35;99529.31;;;16.25;100.00
49341;BME280;35209;51.050;13.678;2023-07-20T02:34:37;99529.66;;;16.33;100.00
49341;BME280;35209;51.050;13.678;2023-07-20T02:39:40;99537.53;;;16.34;100.00
49341;BME280;35209;51.050;13.678;2023-07-20T02:44:41;99531.19;;;16.37;100.00
49341;BME280;35209;51.050;13.678;2023-07-20T02:49:43;99539.91;;;16.39;100.00
49341;BME280;35209;51.050;13.678;2023-07-20T02:54:45;99541.50;;;16.42;100.00
49341;BME280;35209;51.050;13.678;2023-07-20T02:59:47;99548.81;;;16.24;100.00
49341;BME280;35209;51.050;13.678;2023-07-20T03:04:48;99557.03;;;16.33;100.00
49341;BME280;35209;51.050;13.678;2023-07-20T03:09:50;99559.41;;;16.24;100.00
49341;BME280;35209;51.050;13.678;2023-07-20T03:14:52;99561.91;;;16.12;100.00
49341;BME280;35209;51.050;13.678;2023-07-20T03:19:55;99562.94;;;16.10;100.00
49341;BME280;35209;51.050;13.678;2023-07-20T03:24:57;99571.38;;;16.31;100.00
49341;BME280;35209;51.050;13.678;2023-07-20T03:29:58;99569.28;;;16.22;100.00
49341;BME280;35209;51.050;13.678;2023-07-20T03:35:01;99569.81;;;16.41;100.00
49341;BME280;35209;51.050;13.678;2023-07-20T03:40:03;99568.56;;;16.47;100.00
49341;BME280;35209;51.050;13.678;2023-07-20T03:45:06;99572.78;;;16.36;100.00
49341;BME280;35209;51.050;13.678;2023-07-20T03:50:09;99562.94;;;16.38;100.00
49341;BME280;35209;51.050;13.678;2023-07-20T03:55:11;99570.19;;;16.49;100.00
49341;BME280;35209;51.050;13.678;2023-07-20T04:00:13;99572.75;;;16.51;100.00
49341;BME280;35209;51.050;13.678;2023-07-20T04:05:16;99573.63;;;16.51;100.00
49341;BME280;35209;51.050;13.678;2023-07-20T04:10:18;99577.28;;;16.63;100.00
49341;BME280;35209;51.050;13.678;2023-07-20T04:15:20;99569.44;;;16.61;100.00
49341;BME280;35209;51.050;13.678;2023-07-20T04:20:23;99576.13;;;16.67;100.00
49341;BME280;35209;51.050;13.678;2023-07-20T04:25:25;99573.09;;;16.73;100.00
49341;BME280;35209;51.050;13.678;2023-07-20T04:30:27;99581.94;;;16.74;100.00
49341;BME280;35209;51.050;13.678;2023-07-20T04:40:52;99584.38;;;16.62;100.00
49341;BME280;35209;51.050;13.678;2023-07-20T04:45:54;99583.72;;;16.59;100.00
49341;BME280;35209;51.050;13.678;2023-07-20T04:50:57;99576.41;;;16.77;100.00
49341;BME280;35209;51.050;13.678;2023-07-20T04:56:00;99577.63;;;16.85;100.00
49341;BME280;35209;51.050;13.678;2023-07-20T05:01:03;99587.09;;;16.89;100.00
49341;BME280;35209;51.050;13.678;2023-07-20T05:06:08;99591.56;;;17.16;100.00
49341;BME280;35209;51.050;13.678;2023-07-20T05:11:10;99588.16;;;17.14;100.00
49341;BME280;35209;51.050;13.678;2023-07-20T05:16:13;99594.00;;;17.19;100.00
49341;BME280;35209;51.050;13.678;2023-07-20T05:21:15;99596.19;;;17.39;100.00
49341;BME280;35209;51.050;13.678;2023-07-20T05:26:17;99590.47;;;17.46;98.67
49341;BME280;35209;51.050;13.678;2023-07-20T05:31:21;99586.03;;;17.59;99.07
49341;BME280;35209;51.050;13.678;2023-07-20T05:36:23;99592.31;;;17.71;99.09
49341;BME280;35209;51.050;13.678;2023-07-20T05:41:25;99589.38;;;17.88;96.83
49341;BME280;35209;51.050;13.678;2023-07-20T05:46:30;99604.16;;;17.92;97.90
49341;BME280;35209;51.050;13.678;2023-07-20T05:51:47;99602.59;;;18.15;93.63
49341;BME280;35209;51.050;13.678;2023-07-20T05:56:49;99608.00;;;17.75;97.13
49341;BME280;35209;51.050;13.678;2023-07-20T06:01:51;99618.41;;;17.78;97.45
49341;BME280;35209;51.050;13.678;2023-07-20T06:06:53;99618.44;;;17.91;94.67
49341;BME280;35209;51.050;13.678;2023-07-20T06:11:54;99618.16;;;17.69;99.80
49341;BME280;35209;51.050;13.678;2023-07-20T06:16:56;99629.06;;;17.51;95.47
49341;BME280;35209;51.050;13.678;2023-07-20T06:21:58;99637.47;;;17.18;98.05
49341;BME280;35209;51.050;13.678;2023-07-20T06:27:00;99623.00;;;17.09;100.00
49341;BME280;35209;51.050;13.678;2023-07-20T06:32:03;99634.41;;;16.97;100.00
49341;BME280;35209;51.050;13.678;2023-07-20T06:37:05;99642.41;;;16.83;100.00
49341;BME280;35209;51.050;13.678;2023-07-20T06:42:07;99642.41;;;16.83;100.00
49341;BME280;35209;51.050;13.678;2023-07-20T06:47:08;99656.41;;;16.71;100.00
49341;BME280;35209;51.050;13.678;2023-07-20T06:52:10;99640.22;;;16.75;100.00
49341;BME280;35209;51.050;13.678;2023-07-20T06:57:12;99650.16;;;16.72;100.00
49341;BME280;35209;51.050;13.678;2023-07-20T07:02:19;99661.28;;;16.78;100.00
49341;BME280;35209;51.050;13.678;2023-07-20T07:07:21;99659.94;;;17.12;100.00
49341;BME280;35209;51.050;13.678;2023-07-20T07:12:26;99662.41;;;17.15;100.00
49341;BME280;35209;51.050;13.678;2023-07-20T07:17:28;99657.22;;;17.41;100.00
49341;BME280;35209;51.050;13.678;2023-07-20T07:22:31;99657.41;;;17.38;100.00
49341;BME280;35209;51.050;13.678;2023-07-20T07:27:33;99663.81;;;17.48;100.00
49341;BME280;35209;51.050;13.678;2023-07-20T07:32:34;99654.03;;;17.76;100.00
49341;BME280;35209;51.050;13.678;2023-07-20T07:37:36;99651.69;;;17.84;99.70
49341;BME280;35209;51.050;13.678;2023-07-20T07:42:58;99656.63;;;17.90;97.71
49341;BME280;35209;51.050;13.678;2023-07-20T07:48:00;99662.16;;;18.38;97.85
49341;BME280;35209;51.050;13.678;2023-07-20T07:53:01;99651.00;;;18.33;92.77
49341;BME280;35209;51.050;13.678;2023-07-20T07:58:04;99665.25;;;18.32;95.32
49341;BME280;35209;51.050;13.678;2023-07-20T08:03:06;99662.41;;;18.97;87.49
49341;BME280;35209;51.050;13.678;2023-07-20T08:08:09;99654.78;;;18.80;84.43
49341;BME280;35209;51.050;13.678;2023-07-20T08:13:11;99653.97;;;19.03;87.69
49341;BME280;35209;51.050;13.678;2023-07-20T08:18:13;99659.72;;;19.10;85.27
49341;BME280;35209;51.050;13.678;2023-07-20T08:23:15;99660.19;;;18.91;86.72
49341;BME280;35209;51.050;13.678;2023-07-20T08:28:17;99661.78;;;18.94;86.06
49341;BME280;35209;51.050;13.678;2023-07-20T08:33:20;99664.69;;;18.90;87.81
49341;BME280;35209;51.050;13.678;2023-07-20T08:38:22;99660.00;;;19.18;86.32
49341;BME280;35209;51.050;13.678;2023-07-20T08:43:25;99662.34;;;19.71;75.98
49341;BME280;35209;51.050;13.678;2023-07-20T08:48:27;99668.94;;;19.89;79.66
49341;BME280;35209;51.050;13.678;2023-07-20T08:53:29;99677.41;;;20.40;71.99
49341;BME280;35209;51.050;13.678;2023-07-20T08:58:34;99677.72;;;20.13;73.30
49341;BME280;35209;51.050;13.678;2023-07-20T09:03:36;99682.34;;;20.11;69.09
49341;BME280;35209;51.050;13.678;2023-07-20T09:08:41;99676.06;;;20.35;69.83
49341;BME280;35209;51.050;13.678;2023-07-20T09:13:43;99669.22;;;20.55;71.13
49341;BME280;35209;51.050;13.678;2023-07-20T09:18:44;99665.56;;;20.89;70.98
49341;BME280;35209;51.050;13.678;2023-07-20T09:23:46;99662.94;;;21.22;66.53
49341;BME280;35209;51.050;13.678;2023-07-20T09:28:52;99662.50;;;20.94;63.05
49341;BME280;35209;51.050;13.678;2023-07-20T09:33:55;99671.09;;;20.98;66.00
49341;BME280;35209;51.050;13.678;2023-07-20T09:39:00;99659.94;;;21.79;61.88
49341;BME280;35209;51.050;13.678;2023-07-20T09:44:05;99670.13;;;21.85;63.67
49341;BME280;35209;51.050;13.678;2023-07-20T09:49:26;99672.41;;;21.26;62.72
49341;BME280;35209;51.050;13.678;2023-07-20T09:54:31;99683.88;;;20.83;65.04
49341;BME280;35209;51.050;13.678;2023-07-20T09:59:34;99683.59;;;20.30;67.98
49341;BME280;35209;51.050;13.678;2023-07-20T10:04:36;99689.25;;;19.79;79.17
49341;BME280;35209;51.050;13.678;2023-07-20T10:09:39;99686.09;;;19.26;86.28
49341;BME280;35209;51.050;13.678;2023-07-20T10:14:56;99679.06;;;18.75;89.22
49341;BME280;35209;51.050;13.678;2023-07-20T10:20:03;99677.94;;;18.28;96.61
49341;BME280;35209;51.050;13.678;2023-07-20T10:25:06;99676.66;;;18.34;98.82
49341;BME280;35209;51.050;13.678;2023-07-20T10:30:10;99671.41;;;18.71;94.28
49341;BME280;35209;51.050;13.678;2023-07-20T10:35:13;99677.06;;;18.53;98.52
49341;BME280;35209;51.050;13.678;2023-07-20T10:45:40;99683.53;;;18.49;91.85
49341;BME280;35209;51.050;13.678;2023-07-20T10:50:43;99661.06;;;18.79;84.89
49341;BME280;35209;51.050;13.678;2023-07-20T10:55:45;99674.50;;;18.64;88.27
49341;BME280;35209;51.050;13.678;2023-07-20T11:00:58;99681.00;;;18.48;90.17
49341;BME280;35209;51.050;13.678;2023-07-20T11:11:28;99673.22;;;18.19;97.03
49341;BME280;35209;51.050;13.678;2023-07-20T11:16:41;99664.19;;;18.09;96.53
49341;BME280;35209;51.050;13.678;2023-07-20T11:21:45;99678.97;;;18.51;97.53
49341;BME280;35209;51.050;13.678;2023-07-20T11:27:02;99664.25;;;18.84;97.98
49341;BME280;35209;51.050;13.678;2023-07-20T11:32:04;99660.13;;;19.64;93.05
49341;BME280;35209;51.050;13.678;2023-07-20T11:37:07;99656.75;;;19.74;89.41
49341;BME280;35209;51.050;13.678;2023-07-20T11:42:12;99660.28;;;19.74;92.31
49341;BME280;35209;51.050;13.678;2023-07-20T11:47:40;99648.66;;;19.75;87.28
49341;BME280;35209;51.050;13.678;2023-07-20T11:52:43;99663.19;;;20.06;83.44
49341;BME280;35209;51.050;13.678;2023-07-20T11:58:05;99661.44;;;20.05;81.34
49341;BME280;35209;51.050;13.678;2023-07-20T12:03:07;99659.41;;;20.09;77.96
49341;BME280;35209;51.050;13.678;2023-07-20T12:08:09;99662.91;;;19.63;81.95
49341;BME280;35209;51.050;13.678;2023-07-20T12:13:11;99676.00;;;19.42;84.21
49341;BME280;35209;51.050;13.678;2023-07-20T12:18:13;99671.50;;;19.19;88.04
49341;BME280;35209;51.050;13.678;2023-07-20T12:23:15;99677.06;;;18.79;96.28
49341;BME280;35209;51.050;13.678;2023-07-20T12:28:19;99681.09;;;18.59;100.00
49341;BME280;35209;51.050;13.678;2023-07-20T12:33:22;99689.94;;;18.72;100.00
49341;BME280;35209;51.050;13.678;2023-07-20T12:38:24;99707.38;;;18.63;100.00
49341;BME280;35209;51.050;13.678;2023-07-20T12:43:27;99702.81;;;18.53;96.54
49341;BME280;35209;51.050;13.678;2023-07-20T12:48:29;99710.06;;;18.38;98.98
49341;BME280;35209;51.050;13.678;2023-07-20T12:53:31;99714.50;;;18.12;96.11
49341;BME280;35209;51.050;13.678;2023-07-20T12:58:34;99715.78;;;18.06;97.93
49341;BME280;35209;51.050;13.678;2023-07-20T13:03:36;99708.97;;;18.02;98.19
49341;BME280;35209;51.050;13.678;2023-07-20T13:08:58;99697.88;;;17.96;100.00
49341;BME280;35209;51.050;13.678;2023-07-20T13:14:00;99684.41;;;18.11;95.61
49341;BME280;35209;51.050;13.678;2023-07-20T13:19:02;99687.72;;;18.15;92.72
49341;BME280;35209;51.050;13.678;2023-07-20T13:24:05;99672.28;;;18.20;90.43
49341;BME280;35209;51.050;13.678;2023-07-20T13:29:07;99671.97;;;18.12;89.74
49341;BME280;35209;51.050;13.678;2023-07-20T13:34:09;99670.34;;;18.22;88.74
49341;BME280;35209;51.050;13.678;2023-07-20T13:39:11;99674.50;;;18.52;87.71
49341;BME280;35209;51.050;13.678;2023-07-20T13:44:14;99671.72;;;18.66;89.17
49341;BME280;35209;51.050;13.678;2023-07-20T13:49:18;99668.63;;;18.72;84.20
49341;BME280;35209;51.050;13.678;2023-07-20T13:54:24;99665.88;;;18.86;78.90
49341;BME280;35209;51.050;13.678;2023-07-20T13:59:28;99678.41;;;18.84;80.17
49341;BME280;35209;51.050;13.678;2023-07-20T14:04:30;99681.69;;;19.01;77.51
49341;BME280;35209;51.050;13.678;2023-07-20T14:09:33;99684.91;;;18.93;78.40
49341;BME280;35209;51.050;13.678;2023-07-20T14:14:35;99678.72;;;18.93;81.39
49341;BME280;35209;51.050;13.678;2023-07-20T14:19:38;99680.53;;;19.29;79.04
49341;BME280;35209;51.050;13.678;2023-07-20T14:24:40;99690.00;;;19.33;78.10
49341;BME280;35209;51.050;13.678;2023-07-20T14:29:42;99690.50;;;19.38;77.57
49341;BME280;35209;51.050;13.678;2023-07-20T14:34:44;99686.69;;;19.66;76.62
49341;BME280;35209;51.050;13.678;2023-07-20T14:39:48;99700.31;;;20.21;75.02
49341;BME280;35209;51.050;13.678;2023-07-20T14:44:50;99707.44;;;20.55;72.88
49341;BME280;35209;51.050;13.678;2023-07-20T14:49:54;99712.28;;;21.06;72.28
49341;BME280;35209;51.050;13.678;2023-07-20T14:54:57;99695.63;;;21.25;68.06
49341;BME280;35209;51.050;13.678;2023-07-20T14:59:59;99686.78;;;20.91;69.09
49341;BME280;35209;51.050;13.678;2023-07-20T15:05:01;99675.72;;;20.84;66.60
49341;BME280;35209;51.050;13.678;2023-07-20T15:10:05;99674.41;;;20.56;69.22
49341;BME280;35209;51.050;13.678;2023-07-20T15:15:08;99670.25;;;20.30;67.83
49341;BME280;35209;51.050;13.678;2023-07-20T15:20:12;99669.53;;;20.84;68.24
49341;BME280;35209;51.050;13.678;2023-07-20T15:25:14;99663.22;;;20.96;65.43
49341;BME280;35209;51.050;13.678;2023-07-20T15:30:17;99671.22;;;20.40;70.41
49341;BME280;35209;51.050;13.678;2023-07-20T15:35:23;99662.75;;;20.57;70.79
49341;BME280;35209;51.050;13.678;2023-07-20T15:40:25;99663.59;;;20.58;69.48
49341;BME280;35209;51.050;13.678;2023-07-20T15:45:28;99659.63;;;20.63;71.98
49341;BME280;35209;51.050;13.678;2023-07-20T15:50:30;99656.69;;;21.97;66.06
49341;BME280;35209;51.050;13.678;2023-07-20T15:55:33;99656.09;;;22.65;59.40
49341;BME280;35209;51.050;13.678;2023-07-20T16:00:36;99659.28;;;22.50;59.40
49341;BME280;35209;51.050;13.678;2023-07-20T16:05:39;99655.25;;;21.92;59.48
49341;BME280;35209;51.050;13.678;2023-07-20T16:10:44;99660.16;;;21.34;61.66
49341;BME280;35209;51.050;13.678;2023-07-20T16:15:46;99656.94;;;21.73;61.04
49341;BME280;35209;51.050;13.678;2023-07-20T16:20:51;99667.09;;;21.58;57.99
49341;BME280;35209;51.050;13.678;2023-07-20T16:25:55;99659.22;;;20.90;60.78
49341;BME280;35209;51.050;13.678;2023-07-20T16:30:57;99661.44;;;20.85;62.17
49341;BME280;35209;51.050;13.678;2023-07-20T16:35:59;99667.44;;;21.10;62.08
49341;BME280;35209;51.050;13.678;2023-07-20T16:41:02;99648.69;;;20.78;62.89
49341;BME280;35209;51.050;13.678;2023-07-20T16:46:06;99652.19;;;20.67;63.50
49341;BME280;35209;51.050;13.678;2023-07-20T16:51:12;99647.00;;;20.54;64.29
49341;BME280;35209;51.050;13.678;2023-07-20T16:56:14;99646.97;;;20.65;61.86
49341;BME280;35209;51.050;13.678;2023-07-20T17:01:16;99648.66;;;20.66;61.71
49341;BME280;35209;51.050;13.678;2023-07-20T17:06:19;99646.03;;;20.55;59.52
49341;BME280;35209;51.050;13.678;2023-07-20T17:11:21;99648.56;;;20.57;60.20
49341;BME280;35209;51.050;13.678;2023-07-20T17:16:25;99650.25;;;20.47;60.59
49341;BME280;35209;51.050;13.678;2023-07-20T17:21:27;99648.75;;;20.20;62.49
49341;BME280;35209;51.050;13.678;2023-07-20T17:26:29;99640.09;;;19.94;61.84
49341;BME280;35209;51.050;13.678;2023-07-20T17:31:34;99641.69;;;19.97;60.24
49341;BME280;35209;51.050;13.678;2023-07-20T17:36:36;99631.34;;;19.81;61.02
49341;BME280;35209;51.050;13.678;2023-07-20T17:41:42;99640.06;;;19.83;59.24
49341;BME280;35209;51.050;13.678;2023-07-20T17:46:44;99632.25;;;19.69;60.82
49341;BME280;35209;51.050;13.678;2023-07-20T17:51:50;99641.78;;;19.84;60.06
49341;BME280;35209;51.050;13.678;2023-07-20T17:56:54;99636.28;;;19.74;61.08
49341;BME280;35209;51.050;13.678;2023-07-20T18:01:56;99626.94;;;19.69;61.11
49341;BME280;35209;51.050;13.678;2023-07-20T18:06:58;99617.91;;;19.58;61.89
49341;BME280;35209;51.050;13.678;2023-07-20T18:12:00;99613.66;;;19.56;61.97
49341;BME280;35209;51.050;13.678;2023-07-20T18:17:02;99608.72;;;19.38;62.44
49341;BME280;35209;51.050;13.678;2023-07-20T18:22:04;99619.69;;;19.23;62.92
49341;BME280;35209;51.050;13.678;2023-07-20T18:27:06;99616.91;;;19.00;64.79
49341;BME280;35209;51.050;13.678;2023-07-20T18:32:08;99613.28;;;19.01;62.68
49341;BME280;35209;51.050;13.678;2023-07-20T18:37:10;99612.19;;;18.80;65.18
49341;BME280;35209;51.050;13.678;2023-07-20T18:42:12;99619.25;;;18.55;66.10
49341;BME280;35209;51.050;13.678;2023-07-20T18:47:14;99619.47;;;18.52;65.46
49341;BME280;35209;51.050;13.678;2023-07-20T18:52:16;99617.97;;;18.48;65.50
49341;BME280;35209;51.050;13.678;2023-07-20T18:57:17;99626.50;;;18.40;66.33
49341;BME280;35209;51.050;13.678;2023-07-20T19:02:19;99623.84;;;18.28;68.48
49341;BME280;35209;51.050;13.678;2023-07-20T19:07:22;99613.19;;;18.28;66.91
49341;BME280;35209;51.050;13.678;2023-07-20T19:12:24;99628.31;;;18.14;67.95
49341;BME280;35209;51.050;13.678;2023-07-20T19:17:27;99637.16;;;18.02;68.58
49341;BME280;35209;51.050;13.678;2023-07-20T19:22:30;99636.31;;;18.02;68.02
49341;BME280;35209;51.050;13.678;2023-07-20T19:27:32;99656.94;;;17.85;69.29
49341;BME280;35209;51.050;13.678;2023-07-20T19:32:35;99661.41;;;17.85;68.48
49341;BME280;35209;51.050;13.678;2023-07-20T19:37:37;99655.31;;;17.83;68.11
49341;BME280;35209;51.050;13.678;2023-07-20T19:42:39;99668.94;;;17.91;67.40
49341;BME280;35209;51.050;13.678;2023-07-20T19:47:41;99670.09;;;17.87;67.19
49341;BME280;35209;51.050;13.678;2023-07-20T19:52:43;99658.72;;;17.85;67.17
49341;BME280;35209;51.050;13.678;2023-07-20T19:57:48;99665.28;;;17.79;66.94
49341;BME280;35209;51.050;13.678;2023-07-20T20:02:50;99666.31;;;17.64;67.70
49341;BME280;35209;51.050;13.678;2023-07-20T20:07:55;99664.81;;;17.60;67.78
49341;BME280;35209;51.050;13.678;2023-07-20T20:12:57;99675.09;;;17.52;67.88
49341;BME280;35209;51.050;13.678;2023-07-20T20:17:59;99674.19;;;17.38;69.19
49341;BME280;35209;51.050;13.678;2023-07-20T20:23:06;99677.06;;;17.35;69.37
49341;BME280;35209;51.050;13.678;2023-07-20T20:28:08;99680.06;;;17.44;69.43
49341;BME280;35209;51.050;13.678;2023-07-20T20:33:11;99675.44;;;17.33;70.13
49341;BME280;35209;51.050;13.678;2023-07-20T20:38:13;99682.41;;;17.21;70.77
49341;BME280;35209;51.050;13.678;2023-07-20T20:43:15;99682.44;;;17.07;71.65
49341;BME280;35209;51.050;13.678;2023-07-20T20:48:17;99675.19;;;16.96;72.51
49341;BME280;35209;51.050;13.678;2023-07-20T20:53:19;99690.06;;;16.84;72.71
49341;BME280;35209;51.050;13.678;2023-07-20T20:58:21;99682.09;;;16.84;73.01
49341;BME280;35209;51.050;13.678;2023-07-20T21:03:23;99680.69;;;16.79;73.12
49341;BME280;35209;51.050;13.678;2023-07-20T21:08:25;99677.81;;;16.68;73.71
49341;BME280;35209;51.050;13.678;2023-07-20T21:13:29;99682.84;;;16.58;74.92
49341;BME280;35209;51.050;13.678;2023-07-20T21:18:31;99681.53;;;16.51;75.68
49341;BME280;35209;51.050;13.678;2023-07-20T21:23:33;99684.75;;;16.42;75.81
49341;BME280;35209;51.050;13.678;2023-07-20T21:28:36;99699.63;;;16.30;76.31
49341;BME280;35209;51.050;13.678;2023-07-20T21:33:38;99685.78;;;16.25;76.80
49341;BME280;35209;51.050;13.678;2023-07-20T21:38:41;99691.44;;;16.19;77.38
49341;BME280;35209;51.050;13.678;2023-07-20T21:43:43;99700.25;;;16.05;78.80
49341;BME280;35209;51.050;13.678;2023-07-20T21:48:45;99692.53;;;15.86;79.96
49341;BME280;35209;51.050;13.678;2023-07-20T21:53:46;99687.03;;;15.89;79.38
49341;BME280;35209;51.050;13.678;2023-07-20T21:58:48;99687.91;;;15.89;79.93
49341;BME280;35209;51.050;13.678;2023-07-20T22:03:51;99687.22;;;15.86;81.18
49341;BME280;35209;51.050;13.678;2023-07-20T22:08:53;99689.47;;;15.78;82.24
49341;BME280;35209;51.050;13.678;2023-07-20T22:13:55;99693.25;;;15.74;83.71
49341;BME280;35209;51.050;13.678;2023-07-20T22:18:56;99688.03;;;15.72;83.20
49341;BME280;35209;51.050;13.678;2023-07-20T22:23:58;99690.88;;;15.69;84.21
49341;BME280;35209;51.050;13.678;2023-07-20T22:29:00;99684.03;;;15.65;83.61
49341;BME280;35209;51.050;13.678;2023-07-20T22:34:02;99679.34;;;15.54;85.08
49341;BME280;35209;51.050;13.678;2023-07-20T22:39:04;99684.03;;;15.49;86.89
49341;BME280;35209;51.050;13.678;2023-07-20T22:44:06;99680.88;;;15.43;85.36
49341;BME280;35209;51.050;13.678;2023-07-20T22:49:08;99676.81;;;15.37;86.25
49341;BME280;35209;51.050;13.678;2023-07-20T22:54:11;99677.91;;;15.33;86.97
49341;BME280;35209;51.050;13.678;2023-07-20T22:59:13;99676.69;;;15.38;86.66
49341;BME280;35209;51.050;13.678;2023-07-20T23:04:15;99671.84;;;15.31;88.87
49341;BME280;35209;51.050;13.678;2023-07-20T23:09:19;99677.72;;;15.36;88.29
49341;BME280;35209;51.050;13.678;2023-07-20T23:14:21;99673.69;;;15.45;86.86
49341;BME280;35209;51.050;13.678;2023-07-20T23:19:23;99679.00;;;15.45;85.45
49341;BME280;35209;51.050;13.678;2023-07-20T23:24:25;99669.09;;;15.64;82.80
49341;BME280;35209;51.050;13.678;2023-07-20T23:29:28;99666.56;;;15.61;83.84
49341;BME280;35209;51.050;13.678;2023-07-20T23:34:31;99670.88;;;15.48;87.06
49341;BME280;35209;51.050;13.678;2023-07-20T23:39:36;99660.19;;;15.49;86.02
49341;BME280;35209;51.050;13.678;2023-07-20T23:44:38;99665.34;;;15.36;87.27
49341;BME280;35209;51.050;13.678;2023-07-20T23:49:41;99666.63;;;15.29;87.90
49341;BME280;35209;51.050;13.678;2023-07-20T23:54:43;99663.31;;;15.26;87.91
49341;BME280;35209;51.050;13.678;2023-07-20T23:59:45;99661.44;;;15.28;87.29
